Wind From: 11-12-2017 04:25 Until: 16:00 warning for: Wind Level: Orange info button

Power and phone distribution networks may be disrupted for relatively long periods., Roofs and chimneys can be damaged. , Tree branches may break. , Vehicles can be deported. , Traffic may be disrupted, particularly on secondary roads in forest areas. Limit your trips. , Limit your speed in highway driving, especially if you drive a vehicle or hitch sensitive to wind. , Do not go for walks in forests or along the coast., In town, be vigilant against possible falling objects., Do not work on roofs and do not touch any electrical line fallen on the ground., Store or secure sensitive objects to wind or likely to be damaged., Always install power generators outside buildings. 


Meteo18 Weather Cam more information Meteo18 Weather Cam


Thunder radar more information blitzortung!


Rain radar more information rain snow radar


Visit our other weather sites:

Template documentation
and downloads

And another site



Weather Underground History page Text

Daily Summary for June 25, 2016 Units:  Metric    English   Both
« Previous Day
Next Day »
Daily Weekly Monthly Yearly Custom
  High: Low: Average:
Temperature: 23.5 °C 13.3 °C 18.9 °C
Dew Point: 17.8 °C 11.2 °C 14.2 °C
Humidity: 98 % 50 % 76 %
Wind Speed: 12.9 km/h 0.0 km/h 1.9 km/h
Wind Gust: 17.7 km/h - -
Wind:- - ENE
Pressure: 1019.2 hPa 1015.5 hPa -
Precipitation: 0.0 mm    
Historical Graphs
 
 
Tabular Data for June 25, 2016
Time Temperature Dew Point Pressure Wind Wind Speed Wind Gust Humidity Rainfall Rate (Hourly)
00:02 17.3 °C 16.8 °C 1017.2 hPa Calm     97 % 0.3 mm
00:12 17.2 °C 16.7 °C 1017.2 hPa Calm     97 % 0.3 mm
00:17 17.2 °C 16.7 °C 1017.2 hPa Calm     97 % 0.3 mm
00:22 17.1 °C 16.6 °C 1017.5 hPa Calm     97 % 0.3 mm
00:32 16.9 °C 16.4 °C 1017.2 hPa Calm     97 % 0.3 mm
00:42 16.9 °C 16.4 °C 1017.2 hPa Calm     97 % 0.3 mm
00:47 16.9 °C 16.4 °C 1017.2 hPa Calm     97 % 0.3 mm
00:52 16.9 °C 16.4 °C 1017.2 hPa Calm     97 % 0.0 mm
00:57 16.9 °C 16.4 °C 1017.2 hPa Calm     97 % 0.0 mm
01:02 17.0 °C 16.5 °C 1017.2 hPa Calm     97 % 0.0 mm
01:12 17.1 °C 16.6 °C 1017.2 hPa Calm     97 % 0.0 mm
01:17 17.1 °C 16.6 °C 1017.2 hPa Calm     97 % 0.0 mm
01:22 17.3 °C 17.0 °C 1017.2 hPa Calm     98 % 0.0 mm
01:32 17.6 °C 17.3 °C 1017.2 hPa Calm     98 % 0.0 mm
01:37 17.7 °C 17.4 °C 1017.2 hPa Calm   1.6 km/h 98 % 0.0 mm
01:42 17.8 °C 17.5 °C 1016.8 hPa Calm   1.6 km/h 98 % 0.0 mm
01:47 17.8 °C 17.5 °C 1016.8 hPa Calm   1.6 km/h 98 % 0.0 mm
01:52 17.8 °C 17.5 °C 1016.8 hPa Calm     98 % 0.0 mm
01:57 17.8 °C 17.3 °C 1016.8 hPa Calm     97 % 0.0 mm
02:02 17.8 °C 17.3 °C 1016.5 hPa Calm     97 % 0.0 mm
02:07 17.7 °C 17.2 °C 1016.5 hPa Calm     97 % 0.0 mm
02:12 17.7 °C 17.2 °C 1016.5 hPa Calm     97 % 0.0 mm
02:17 17.7 °C 17.2 °C 1016.5 hPa Calm     97 % 0.0 mm
02:32 17.7 °C 17.2 °C 1016.1 hPa Calm     97 % 0.0 mm
02:37 17.7 °C 17.2 °C 1016.1 hPa Calm     97 % 0.0 mm
02:42 17.6 °C 17.1 °C 1016.1 hPa Calm     97 % 0.0 mm
02:47 17.5 °C 17.0 °C 1016.1 hPa Calm     97 % 0.0 mm
02:52 17.6 °C 17.3 °C 1016.1 hPa Calm     98 % 0.0 mm
02:57 17.8 °C 17.5 °C 1016.1 hPa Calm     98 % 0.0 mm
03:02 18.0 °C 17.7 °C 1016.1 hPa Calm     98 % 0.0 mm
03:12 18.1 °C 17.8 °C 1016.1 hPa Calm   1.6 km/h 98 % 0.0 mm
03:17 17.9 °C 17.6 °C 1015.8 hPa Calm   1.6 km/h 98 % 0.0 mm
03:22 17.8 °C 17.3 °C 1015.8 hPa Calm   1.6 km/h 97 % 0.0 mm
03:32 17.7 °C 17.2 °C 1015.8 hPa Calm   1.6 km/h 97 % 0.0 mm
03:37 17.7 °C 17.4 °C 1015.8 hPa Calm     98 % 0.0 mm
03:42 17.7 °C 17.4 °C 1015.8 hPa Calm     98 % 0.0 mm
03:47 17.7 °C 17.4 °C 1015.8 hPa Calm     98 % 0.0 mm
03:52 17.6 °C 17.1 °C 1015.8 hPa Calm     97 % 0.0 mm
03:57 17.6 °C 17.3 °C 1015.8 hPa Calm     98 % 0.0 mm
04:02 17.7 °C 17.4 °C 1015.8 hPa Calm     98 % 0.0 mm
04:12 17.7 °C 17.4 °C 1015.5 hPa Calm     98 % 0.0 mm
04:17 17.6 °C 17.3 °C 1015.5 hPa Calm     98 % 0.0 mm
04:22 17.6 °C 17.3 °C 1015.5 hPa Calm     98 % 0.0 mm
04:32 17.6 °C 17.3 °C 1015.8 hPa Calm     98 % 0.0 mm
04:37 17.6 °C 17.3 °C 1015.5 hPa Calm     98 % 0.0 mm
04:42 17.6 °C 17.3 °C 1015.5 hPa Calm     98 % 0.0 mm
04:47 17.6 °C 17.3 °C 1015.5 hPa Calm     98 % 0.0 mm
04:52 17.6 °C 17.3 °C 1015.5 hPa Calm     98 % 0.0 mm
05:02 17.7 °C 17.4 °C 1015.5 hPa Calm     98 % 0.0 mm
05:12 17.7 °C 17.4 °C 1015.5 hPa Calm   1.6 km/h 98 % 0.0 mm
05:22 17.8 °C 17.5 °C 1015.5 hPa NNE 1.6 km/h 1.6 km/h 98 % 0.0 mm
05:32 17.6 °C 17.1 °C 1015.5 hPa NE 3.2 km/h 4.8 km/h 97 % 0.0 mm
05:52 16.9 °C 16.4 °C 1015.5 hPa NE 3.2 km/h 8.0 km/h 97 % 0.0 mm
06:02 16.8 °C 16.3 °C 1015.5 hPa NE 3.2 km/h 8.0 km/h 97 % 0.0 mm
06:12 16.7 °C 16.2 °C 1015.5 hPa NE 4.8 km/h 12.9 km/h 97 % 0.0 mm
06:17 16.7 °C 16.2 °C 1015.5 hPa NE 4.8 km/h 12.9 km/h 97 % 0.0 mm
06:32 16.3 °C 15.8 °C 1015.5 hPa Calm   11.3 km/h 97 % 0.0 mm
06:42 16.3 °C 15.8 °C 1015.5 hPa ENE 3.2 km/h 11.3 km/h 97 % 0.0 mm
06:52 15.8 °C 15.2 °C 1015.8 hPa NE 1.6 km/h 9.7 km/h 96 % 0.0 mm
07:02 15.5 °C 14.9 °C 1015.8 hPa ESE 4.8 km/h 16.1 km/h 96 % 0.0 mm
07:12 15.0 °C 14.4 °C 1015.8 hPa NE 8.0 km/h 16.1 km/h 96 % 0.0 mm
07:22 14.9 °C 14.3 °C 1015.8 hPa NE 3.2 km/h 16.1 km/h 96 % 0.0 mm
07:32 15.0 °C 14.4 °C 1015.8 hPa NE 3.2 km/h 12.9 km/h 96 % 0.0 mm
07:42 14.9 °C 14.1 °C 1016.1 hPa East 1.6 km/h 12.9 km/h 95 % 0.0 mm
07:52 15.0 °C 14.0 °C 1016.1 hPa NE 8.0 km/h 9.7 km/h 94 % 0.0 mm
08:02 15.2 °C 14.1 °C 1016.1 hPa NE 8.0 km/h 11.3 km/h 93 % 0.0 mm
08:12 15.2 °C 13.9 °C 1016.1 hPa SE 4.8 km/h 14.5 km/h 92 % 0.0 mm
08:22 15.4 °C 14.1 °C 1016.5 hPa ENE 3.2 km/h 14.5 km/h 92 % 0.0 mm
08:32 15.4 °C 13.9 °C 1016.5 hPa NE 1.6 km/h 12.9 km/h 91 % 0.0 mm
08:42 15.4 °C 13.9 °C 1016.5 hPa NE 6.4 km/h 9.7 km/h 91 % 0.0 mm
08:47 15.5 °C 14.0 °C 1016.8 hPa ENE 8.0 km/h 12.9 km/h 91 % 0.0 mm
08:52 15.8 °C 14.3 °C 1016.8 hPa ENE 3.2 km/h 12.9 km/h 91 % 0.0 mm
09:02 15.9 °C 14.1 °C 1016.8 hPa NE 11.3 km/h 11.3 km/h 89 % 0.0 mm
09:22 15.6 °C 13.8 °C 1017.2 hPa NE 6.4 km/h 14.5 km/h 89 % 0.0 mm
09:42 17.2 °C 14.3 °C 1017.2 hPa ESE 3.2 km/h 11.3 km/h 83 % 0.0 mm
09:47 17.3 °C 14.2 °C 1017.2 hPa Calm   11.3 km/h 82 % 0.0 mm
09:57 17.9 °C 14.2 °C 1017.2 hPa NE 6.4 km/h 12.9 km/h 79 % 0.0 mm
10:02 18.2 °C 14.7 °C 1017.2 hPa ENE 4.8 km/h 12.9 km/h 80 % 0.0 mm
10:12 18.8 °C 15.3 °C 1017.2 hPa NNE 4.8 km/h 12.9 km/h 80 % 0.0 mm
10:17 19.1 °C 15.2 °C 1017.5 hPa Calm   11.3 km/h 78 % 0.0 mm
10:22 19.3 °C 15.0 °C 1017.5 hPa NE 8.0 km/h 11.3 km/h 76 % 0.0 mm
10:27 19.0 °C 14.5 °C 1017.5 hPa NE 8.0 km/h 16.1 km/h 75 % 0.0 mm
10:32 18.8 °C 14.5 °C 1017.5 hPa NE 6.4 km/h 16.1 km/h 76 % 0.0 mm
10:37 18.9 °C 14.6 °C 1017.5 hPa NE 6.4 km/h 16.1 km/h 76 % 0.0 mm
10:42 19.1 °C 14.8 °C 1017.5 hPa NE 4.8 km/h 16.1 km/h 76 % 0.0 mm
10:47 19.4 °C 14.6 °C 1017.5 hPa NE 3.2 km/h 14.5 km/h 74 % 0.0 mm
10:52 19.7 °C 14.9 °C 1017.5 hPa North 4.8 km/h 14.5 km/h 74 % 0.0 mm
10:57 19.8 °C 15.0 °C 1017.8 hPa NE 6.4 km/h 12.9 km/h 74 % 0.0 mm
11:02 20.0 °C 15.0 °C 1017.8 hPa East 4.8 km/h 12.9 km/h 73 % 0.0 mm
11:07 20.3 °C 15.7 °C 1017.8 hPa Calm   14.5 km/h 75 % 0.0 mm
11:12 20.0 °C 14.8 °C 1017.8 hPa ENE 1.6 km/h 14.5 km/h 72 % 0.0 mm
11:17 19.6 °C 14.8 °C 1017.8 hPa NE 3.2 km/h 9.7 km/h 74 % 0.0 mm
11:22 19.3 °C 14.5 °C 1017.8 hPa Calm   9.7 km/h 74 % 0.0 mm
11:32 19.1 °C 14.6 °C 1017.8 hPa ENE 1.6 km/h 11.3 km/h 75 % 0.0 mm
11:42 19.2 °C 14.7 °C 1017.8 hPa ENE 3.2 km/h 9.7 km/h 75 % 0.0 mm
11:52 19.1 °C 14.4 °C 1017.8 hPa NE 4.8 km/h 11.3 km/h 74 % 0.0 mm
11:57 19.3 °C 15.6 °C 1017.8 hPa NNE 8.0 km/h 11.3 km/h 79 % 0.0 mm
12:02 19.3 °C 14.3 °C 1017.8 hPa Calm   11.3 km/h 73 % 0.0 mm
12:07 19.2 °C 14.2 °C 1017.8 hPa ENE 3.2 km/h 12.9 km/h 73 % 0.0 mm
12:12 19.2 °C 14.7 °C 1017.8 hPa East 1.6 km/h 12.9 km/h 75 % 0.0 mm
12:17 19.1 °C 14.1 °C 1018.2 hPa NE 3.2 km/h 12.9 km/h 73 % 0.0 mm
12:22 19.8 °C 15.0 °C 1017.8 hPa SSE 3.2 km/h 9.7 km/h 74 % 0.0 mm
12:27 20.8 °C 14.9 °C 1018.2 hPa Calm   9.7 km/h 69 % 0.0 mm
12:32 21.0 °C 14.6 °C 1018.2 hPa Calm   9.7 km/h 67 % 0.0 mm
12:37 21.0 °C 14.4 °C 1018.2 hPa Calm   9.7 km/h 66 % 0.0 mm
12:42 21.2 °C 14.4 °C 1018.2 hPa ENE 1.6 km/h 11.3 km/h 65 % 0.0 mm
12:47 20.8 °C 14.4 °C 1018.2 hPa NE 8.0 km/h 11.3 km/h 67 % 0.0 mm
12:52 20.5 °C 14.2 °C 1018.2 hPa NE 4.8 km/h 11.3 km/h 67 % 0.0 mm
12:57 20.3 °C 13.7 °C 1018.2 hPa NE 3.2 km/h 12.9 km/h 66 % 0.0 mm
13:02 20.1 °C 14.5 °C 1018.2 hPa NE 1.6 km/h 12.9 km/h 70 % 0.0 mm
13:12 21.2 °C 14.8 °C 1017.8 hPa ENE 1.6 km/h 12.9 km/h 67 % 0.0 mm
13:17 21.6 °C 14.5 °C 1017.8 hPa SE 1.6 km/h 8.0 km/h 64 % 0.0 mm
13:22 21.3 °C 13.7 °C 1017.8 hPa Calm   8.0 km/h 62 % 0.0 mm
13:27 21.8 °C 14.4 °C 1017.8 hPa ENE 8.0 km/h 12.9 km/h 63 % 0.0 mm
13:32 21.7 °C 13.3 °C 1017.8 hPa East 4.8 km/h 12.9 km/h 59 % 0.0 mm
13:37 21.7 °C 14.3 °C 1017.8 hPa Calm   12.9 km/h 63 % 0.0 mm
13:42 22.0 °C 15.8 °C 1017.8 hPa NE 1.6 km/h 12.9 km/h 68 % 0.0 mm
13:47 21.9 °C 14.0 °C 1017.8 hPa NE 4.8 km/h 12.9 km/h 61 % 0.0 mm
13:57 20.8 °C 14.7 °C 1017.8 hPa ESE 1.6 km/h 12.9 km/h 68 % 0.0 mm
14:02 21.2 °C 13.9 °C 1017.8 hPa ENE 1.6 km/h 12.9 km/h 63 % 0.0 mm
14:07 20.9 °C 13.6 °C 1017.8 hPa NE 3.2 km/h 9.7 km/h 63 % 0.0 mm
14:12 21.3 °C 13.5 °C 1017.8 hPa ENE 3.2 km/h 9.7 km/h 61 % 0.0 mm
14:17 21.8 °C 13.7 °C 1017.8 hPa SSE 1.6 km/h 8.0 km/h 60 % 0.0 mm
14:22 21.9 °C 13.8 °C 1017.8 hPa West 4.8 km/h 8.0 km/h 60 % 0.0 mm
14:32 22.1 °C 13.4 °C 1017.8 hPa South 1.6 km/h 6.4 km/h 58 % 0.0 mm
14:37 22.4 °C 13.2 °C 1017.8 hPa Calm   9.7 km/h 56 % 0.0 mm
14:42 22.2 °C 13.3 °C 1017.8 hPa SW 1.6 km/h 9.7 km/h 57 % 0.0 mm
14:47 22.0 °C 12.8 °C 1017.5 hPa Calm   9.7 km/h 56 % 0.0 mm
14:52 21.9 °C 12.7 °C 1017.5 hPa NE 1.6 km/h 9.7 km/h 56 % 0.0 mm
14:57 22.1 °C 14.2 °C 1017.5 hPa Calm   6.4 km/h 61 % 0.0 mm
15:02 21.9 °C 13.0 °C 1017.5 hPa SE 4.8 km/h 6.4 km/h 57 % 0.0 mm
15:07 22.0 °C 14.4 °C 1017.8 hPa NNE 1.6 km/h 8.0 km/h 62 % 0.0 mm
15:17 21.6 °C 13.5 °C 1017.8 hPa Calm   17.7 km/h 60 % 0.0 mm
15:22 21.8 °C 13.2 °C 1017.8 hPa East 12.9 km/h 17.7 km/h 58 % 0.0 mm
15:27 21.4 °C 12.5 °C 1017.8 hPa NE 8.0 km/h 14.5 km/h 57 % 0.0 mm
15:32 21.7 °C 13.6 °C 1017.8 hPa Calm   14.5 km/h 60 % 0.0 mm
15:37 22.2 °C 13.8 °C 1017.8 hPa Calm   14.5 km/h 59 % 0.0 mm
15:42 22.8 °C 13.6 °C 1017.8 hPa ESE 1.6 km/h 14.5 km/h 56 % 0.0 mm
15:47 23.2 °C 14.2 °C 1017.8 hPa NE 4.8 km/h 11.3 km/h 57 % 0.0 mm
15:52 22.9 °C 12.5 °C 1017.5 hPa Calm   11.3 km/h 52 % 0.0 mm
15:57 23.2 °C 13.4 °C 1017.5 hPa NE 3.2 km/h 11.3 km/h 54 % 0.0 mm
16:02 23.3 °C 13.2 °C 1017.5 hPa South 3.2 km/h 11.3 km/h 53 % 0.0 mm
16:07 23.1 °C 12.1 °C 1017.5 hPa ENE 3.2 km/h 14.5 km/h 50 % 0.0 mm
16:12 22.3 °C 13.1 °C 1017.5 hPa NNE 6.4 km/h 14.5 km/h 56 % 0.0 mm
16:17 22.7 °C 13.7 °C 1017.5 hPa NE 4.8 km/h 17.7 km/h 57 % 0.0 mm
16:22 23.1 °C 13.6 °C 1017.5 hPa ENE 9.7 km/h 17.7 km/h 55 % 0.0 mm
16:32 23.5 °C 13.4 °C 1017.5 hPa ENE 6.4 km/h 16.1 km/h 53 % 0.0 mm
16:37 23.3 °C 12.3 °C 1017.5 hPa ENE 1.6 km/h 16.1 km/h 50 % 0.0 mm
16:42 22.7 °C 12.6 °C 1017.5 hPa ENE 4.8 km/h 16.1 km/h 53 % 0.0 mm
16:47 22.1 °C 12.9 °C 1017.5 hPa Calm   14.5 km/h 56 % 0.0 mm
16:52 22.1 °C 12.6 °C 1017.5 hPa SE 1.6 km/h 14.5 km/h 55 % 0.0 mm
16:57 22.1 °C 12.6 °C 1017.5 hPa Calm   6.4 km/h 55 % 0.0 mm
17:02 22.1 °C 13.4 °C 1017.5 hPa Calm   6.4 km/h 58 % 0.0 mm
17:07 21.8 °C 12.9 °C 1017.5 hPa NE 1.6 km/h 8.0 km/h 57 % 0.0 mm
17:12 21.8 °C 12.4 °C 1017.5 hPa East 3.2 km/h 8.0 km/h 55 % 0.0 mm
17:17 21.4 °C 12.5 °C 1017.5 hPa NE 1.6 km/h 12.9 km/h 57 % 0.0 mm
17:22 21.4 °C 12.8 °C 1017.5 hPa ENE 3.2 km/h 12.9 km/h 58 % 0.0 mm
17:27 22.0 °C 13.4 °C 1017.5 hPa ENE 3.2 km/h 9.7 km/h 58 % 0.0 mm
17:32 22.3 °C 12.5 °C 1017.5 hPa Calm   9.7 km/h 54 % 0.0 mm
17:37 22.8 °C 13.0 °C 1017.5 hPa Calm   6.4 km/h 54 % 0.0 mm
17:42 22.5 °C 12.4 °C 1017.5 hPa ESE 4.8 km/h 6.4 km/h 53 % 0.0 mm
17:47 21.7 °C 13.1 °C 1017.5 hPa SE 1.6 km/h 9.7 km/h 58 % 0.0 mm
17:52 21.2 °C 12.3 °C 1017.5 hPa NE 1.6 km/h 9.7 km/h 57 % 0.0 mm
17:57 20.9 °C 12.1 °C 1017.5 hPa ENE 3.2 km/h 12.9 km/h 57 % 0.0 mm
18:02 21.1 °C 12.5 °C 1017.5 hPa NE 1.6 km/h 12.9 km/h 58 % 0.0 mm
18:07 21.1 °C 13.0 °C 1017.5 hPa Calm   12.9 km/h 60 % 0.0 mm
18:12 21.0 °C 12.4 °C 1017.5 hPa ENE 1.6 km/h 12.9 km/h 58 % 0.0 mm
18:17 20.9 °C 12.3 °C 1017.5 hPa ENE 1.6 km/h 9.7 km/h 58 % 0.0 mm
18:27 20.7 °C 12.7 °C 1017.5 hPa Calm   9.7 km/h 60 % 0.0 mm
18:32 20.7 °C 12.4 °C 1017.5 hPa NE 4.8 km/h 4.8 km/h 59 % 0.0 mm
18:42 21.2 °C 12.9 °C 1017.5 hPa NE 1.6 km/h 11.3 km/h 59 % 0.0 mm
18:47 21.6 °C 12.4 °C 1017.5 hPa ENE 4.8 km/h 11.3 km/h 56 % 0.0 mm
18:52 21.5 °C 12.4 °C 1017.5 hPa NNE 9.7 km/h 11.3 km/h 56 % 0.0 mm
19:02 21.1 °C 11.7 °C 1017.5 hPa ESE 6.4 km/h 14.5 km/h 55 % 0.0 mm
19:07 20.9 °C 12.1 °C 1017.5 hPa NE 3.2 km/h 14.5 km/h 57 % 0.0 mm
19:12 20.6 °C 11.8 °C 1017.5 hPa Calm   14.5 km/h 57 % 0.0 mm
19:17 20.4 °C 11.9 °C 1017.5 hPa Calm   11.3 km/h 58 % 0.0 mm
19:22 20.4 °C 11.9 °C 1017.5 hPa ENE 3.2 km/h 11.3 km/h 58 % 0.0 mm
19:27 20.3 °C 11.5 °C 1017.8 hPa NNE 1.6 km/h 9.7 km/h 57 % 0.0 mm
19:32 20.3 °C 11.8 °C 1017.8 hPa NE 4.8 km/h 9.7 km/h 58 % 0.0 mm
19:37 20.2 °C 11.4 °C 1017.8 hPa NE 3.2 km/h 8.0 km/h 57 % 0.0 mm
19:42 19.9 °C 11.9 °C 1017.8 hPa ENE 1.6 km/h 8.0 km/h 60 % 0.0 mm
19:47 19.8 °C 12.6 °C 1017.8 hPa Calm   6.4 km/h 63 % 0.0 mm
19:52 19.6 °C 12.8 °C 1017.8 hPa Calm   6.4 km/h 65 % 0.0 mm
19:57 19.3 °C 12.6 °C 1017.8 hPa Calm   3.2 km/h 65 % 0.0 mm
20:02 19.2 °C 12.9 °C 1017.8 hPa Calm   3.2 km/h 67 % 0.0 mm
20:07 19.1 °C 13.5 °C 1017.8 hPa ENE 1.6 km/h 3.2 km/h 70 % 0.0 mm
20:12 19.1 °C 12.6 °C 1017.8 hPa Calm   3.2 km/h 66 % 0.0 mm
20:17 19.0 °C 12.7 °C 1018.2 hPa Calm   1.6 km/h 67 % 0.0 mm
20:22 18.9 °C 12.2 °C 1018.2 hPa Calm   1.6 km/h 65 % 0.0 mm
20:27 18.9 °C 12.2 °C 1018.2 hPa Calm   3.2 km/h 65 % 0.0 mm
20:32 18.7 °C 12.0 °C 1018.2 hPa Calm   3.2 km/h 65 % 0.0 mm
20:37 18.6 °C 11.9 °C 1018.2 hPa Calm   6.4 km/h 65 % 0.0 mm
20:42 18.5 °C 12.0 °C 1018.2 hPa Calm   6.4 km/h 66 % 0.0 mm
20:47 18.4 °C 12.2 °C 1018.2 hPa Calm   6.4 km/h 67 % 0.0 mm
20:52 18.3 °C 12.3 °C 1018.2 hPa Calm   6.4 km/h 68 % 0.0 mm
20:57 18.1 °C 12.1 °C 1018.2 hPa Calm   4.8 km/h 68 % 0.0 mm
21:02 17.9 °C 11.9 °C 1018.2 hPa Calm   4.8 km/h 68 % 0.0 mm
21:07 17.8 °C 11.8 °C 1018.2 hPa Calm   1.6 km/h 68 % 0.0 mm
21:12 17.7 °C 11.7 °C 1018.5 hPa Calm   1.6 km/h 68 % 0.0 mm
21:17 17.6 °C 11.6 °C 1018.5 hPa Calm   1.6 km/h 68 % 0.0 mm
21:22 17.5 °C 11.7 °C 1018.5 hPa Calm   1.6 km/h 69 % 0.0 mm
21:27 17.3 °C 11.6 °C 1018.5 hPa Calm   1.6 km/h 69 % 0.0 mm
21:32 17.2 °C 11.7 °C 1018.5 hPa Calm   1.6 km/h 70 % 0.0 mm
21:37 16.9 °C 12.0 °C 1018.5 hPa Calm     73 % 0.0 mm
21:42 16.7 °C 11.6 °C 1018.5 hPa Calm     72 % 0.0 mm
21:47 16.5 °C 11.4 °C 1018.5 hPa Calm     72 % 0.0 mm
21:52 16.3 °C 11.7 °C 1018.8 hPa Calm     74 % 0.0 mm
21:57 16.1 °C 11.9 °C 1018.8 hPa Calm     76 % 0.0 mm
22:02 15.8 °C 11.8 °C 1018.8 hPa Calm     77 % 0.0 mm
22:07 15.6 °C 11.8 °C 1018.8 hPa Calm     78 % 0.0 mm
22:12 15.3 °C 11.9 °C 1018.8 hPa Calm     80 % 0.0 mm
22:17 15.1 °C 11.7 °C 1018.8 hPa Calm     80 % 0.0 mm
22:22 14.9 °C 11.7 °C 1018.8 hPa Calm     81 % 0.0 mm
22:27 14.8 °C 11.8 °C 1018.8 hPa Calm     82 % 0.0 mm
22:34 14.5 °C 11.5 °C 1018.8 hPa Calm     82 % 0.0 mm
22:42 14.1 °C 11.6 °C 1018.8 hPa Calm     85 % 0.0 mm
22:57 13.4 °C 11.5 °C 1019.2 hPa Calm     88 % 0.0 mm
23:09 13.3 °C 11.5 °C 1019.2 hPa Calm     89 % 0.0 mm
23:23 13.4 °C 11.3 °C 1019.2 hPa Calm   1.6 km/h 87 % 0.0 mm
23:38 13.9 °C 11.2 °C 1019.2 hPa Calm     84 % 0.0 mm
23:52 13.5 °C 11.2 °C 1019.2 hPa Calm     86 % 0.0 mm
Meteo18
Compliments of Weather Underground - 4 mb

Script developed by  Jim McMurry - jmcmurry@mwt.net Adapted for the template by  Wim van der Kuil - Leuven-Template.eu

You find our weather info also at:

European Weather Network

Weather Underground

Equipment we use:

Weather-station
Davis Vue

Weather-program
Meteohub

Weather-server
Raspberry PI 2 B+

Provider
1 and 1

Davis Vue

Meteohub

Raspberry PI 2 B+

1 and 1